Nikitis — SVA7358 — position and weather

sailwx.info

Track history (hours):
 
Tides and Currents Weather Stations Pressure Air Temp Water Temp Dewpoint Dewpoint Depression Visibility Wind Speed Wind Dir Waves Ship Positions

Nikitis

Last reported at 2018-Jan-20 03:29 UTC. Time now 2018-Jan-20 03:41 UTC.
Position N 40°47' E 024°42'.

Length 39 m.

Type: Passenger vessel. MMSI: 239992800.

Date/timePositionNaut miles runAvg speedWind from/ knotsBaromVisibWave heightAir tempDewpointWater temp
2018-Jan-20 03:29N 40°47' E 024°42'0 0.0
2018-Jan-19 12:43N 40°47' E 024°42'0 0.0
2018-Jan-19 12:30N 40°47' E 024°42'4 8.3
2018-Jan-19 12:00N 40°51' E 024°41'1 2.2
2018-Jan-19 11:30N 40°51' E 024°42'1 2.6
2018-Jan-19 11:00N 40°51' E 024°41'4 8.2
2018-Jan-19 10:30N 40°47' E 024°42'0 0.0
2018-Jan-19 10:00N 40°47' E 024°42'0 0.0
2018-Jan-19 09:30N 40°47' E 024°42'0 0.0
2018-Jan-19 09:00N 40°47' E 024°42'4 8.0
2018-Jan-19 08:30N 40°51' E 024°41'1 2.5
2018-Jan-19 08:00N 40°51' E 024°42'1 2.7
2018-Jan-19 07:30N 40°51' E 024°41'4 8.1
2018-Jan-19 07:00N 40°47' E 024°42'0 0.0
2018-Jan-19 06:30N 40°47' E 024°42'2 3.4
2018-Jan-19 06:00N 40°48' E 024°41'3 6.2
2018-Jan-19 05:30N 40°51' E 024°42'0 0.1
2018-Jan-19 05:00N 40°51' E 024°42'0 0.0
2018-Jan-18 18:15N 40°51' E 024°42'0 0.0
2018-Jan-18 18:00N 40°51' E 024°42'2 3.3
2018-Jan-18 17:30N 40°50' E 024°41'3 6.2
2018-Jan-18 17:00N 40°47' E 024°42'0 0.1
2018-Jan-18 16:31N 40°47' E 024°42'0 0.0
2018-Jan-18 16:00N 40°47' E 024°42'2 4.4
2018-Jan-18 15:30N 40°49' E 024°41'3 5.5
2018-Jan-18 15:01N 40°51' E 024°42'1 2.7
2018-Jan-18 14:30N 40°51' E 024°41'4 7.8
2018-Jan-18 14:00N 40°47' E 024°42'0 0.3
2018-Jan-18 13:30N 40°47' E 024°42'4 8.7
2018-Jan-18 13:00N 40°51' E 024°41'  
2018-Jan-12 14:25N 40°47' E 024°42'0 0.0
2018-Jan-12 14:00N 40°47' E 024°42'4 8.3
2018-Jan-12 13:29N 40°51' E 024°41'1 2.2
2018-Jan-12 13:00N 40°51' E 024°42'3 5.5
2018-Jan-12 12:30N 40°49' E 024°42'2 3.9
2018-Jan-12 12:00N 40°47' E 024°42'0 0.0
2018-Jan-12 11:05N 40°47' E 024°42'0 0.1
2018-Jan-12 11:00N 40°47' E 024°42'4 7.9
2018-Jan-12 10:30N 40°51' E 024°41'1 2.3
2018-Jan-12 10:01N 40°51' E 024°42'1 2.2
2018-Jan-12 09:31N 40°51' E 024°41'4 8.5
2018-Jan-12 09:00N 40°47' E 024°42'0 0.0
2018-Jan-12 08:30N 40°47' E 024°42'0 0.0
2018-Jan-11 14:28N 40°47' E 024°43'0 0.5
2018-Jan-11 14:00N 40°47' E 024°42'4 8.3
2018-Jan-11 13:30N 40°51' E 024°41'1 2.1
2018-Jan-11 13:00N 40°51' E 024°42'3 5.5
2018-Jan-11 12:30N 40°49' E 024°42'2 3.9
2018-Jan-11 12:00N 40°47' E 024°42'0 0.0
2018-Jan-11 11:29N 40°47' E 024°42'0 0.0
2018-Jan-11 11:00N 40°47' E 024°42'4 7.7
2018-Jan-11 10:30N 40°51' E 024°41'1 2.5
2018-Jan-11 10:00N 40°51' E 024°42'0 0.0
2018-Jan-11 08:20N 40°51' E 024°42'1 3.4
2018-Jan-11 08:00N 40°51' E 024°41'4 7.8
2018-Jan-11 07:30N 40°47' E 024°42'0 0.0
2018-Jan-11 07:00N 40°47' E 024°42'4 7.9
2018-Jan-11 06:30N 40°51' E 024°41'1 2.4
2018-Jan-11 06:00N 40°51' E 024°42'1 2.2
2018-Jan-11 05:30N 40°51' E 024°41'4 8.0
2018-Jan-11 05:00N 40°47' E 024°42'0 0.1
2018-Jan-11 04:30N 40°47' E 024°42'0 0.0
2018-Jan-10 10:23N 40°47' E 024°42'0 0.0
2018-Jan-10 10:00N 40°47' E 024°42'0 0.0
2018-Jan-10 09:30N 40°47' E 024°42'0 0.0
2018-Jan-10 09:00N 40°47' E 024°42'0 0.0
2018-Jan-10 08:31N 40°47' E 024°42'0 0.0
2018-Jan-10 08:00N 40°47' E 024°42'2 3.5
2018-Jan-10 07:30N 40°48' E 024°42'3 6.0
2018-Jan-10 07:00N 40°51' E 024°42'0 0.0
2018-Jan-10 06:30N 40°51' E 024°42'3 5.4
2018-Jan-10 06:00N 40°49' E 024°41'2 4.1
2018-Jan-10 05:30N 40°47' E 024°42'4 8.4
2018-Jan-10 05:00N 40°51' E 024°41'1 2.2
2018-Jan-10 04:30N 40°51' E 024°42'1 2.4
2018-Jan-10 04:00N 40°50' E 024°41'4 7.6
2018-Jan-10 03:30N 40°47' E 024°42'  
Track history (hours):
 
Tides and Currents Weather Stations Pressure Air Temp Water Temp Dewpoint Dewpoint Depression Visibility Wind Speed Wind Dir Waves Ship Positions

Nikitis

Last reported at 2018-Jan-20 03:29 UTC. Time now 2018-Jan-20 03:41 UTC.
Position N 40°47' E 024°42'.

Length 39 m.

Type: Passenger vessel. MMSI: 239992800.

Date/timePositionNaut miles runAvg speedWind from/ knotsBaromVisibWave heightAir tempDewpointWater temp
2018-Jan-20 03:29N 40°47' E 024°42'0 0.0
2018-Jan-19 12:43N 40°47' E 024°42'0 0.0
2018-Jan-19 12:30N 40°47' E 024°42'4 8.3
2018-Jan-19 12:00N 40°51' E 024°41'1 2.2
2018-Jan-19 11:30N 40°51' E 024°42'1 2.6
2018-Jan-19 11:00N 40°51' E 024°41'4 8.2
2018-Jan-19 10:30N 40°47' E 024°42'0 0.0
2018-Jan-19 10:00N 40°47' E 024°42'0 0.0
2018-Jan-19 09:30N 40°47' E 024°42'0 0.0
2018-Jan-19 09:00N 40°47' E 024°42'4 8.0
2018-Jan-19 08:30N 40°51' E 024°41'1 2.5
2018-Jan-19 08:00N 40°51' E 024°42'1 2.7
2018-Jan-19 07:30N 40°51' E 024°41'4 8.1
2018-Jan-19 07:00N 40°47' E 024°42'0 0.0
2018-Jan-19 06:30N 40°47' E 024°42'2 3.4
2018-Jan-19 06:00N 40°48' E 024°41'3 6.2
2018-Jan-19 05:30N 40°51' E 024°42'0 0.1
2018-Jan-19 05:00N 40°51' E 024°42'0 0.0
2018-Jan-18 18:15N 40°51' E 024°42'0 0.0
2018-Jan-18 18:00N 40°51' E 024°42'2 3.3
2018-Jan-18 17:30N 40°50' E 024°41'3 6.2
2018-Jan-18 17:00N 40°47' E 024°42'0 0.1
2018-Jan-18 16:31N 40°47' E 024°42'0 0.0
2018-Jan-18 16:00N 40°47' E 024°42'2 4.4
2018-Jan-18 15:30N 40°49' E 024°41'3 5.5
2018-Jan-18 15:01N 40°51' E 024°42'1 2.7
2018-Jan-18 14:30N 40°51' E 024°41'4 7.8
2018-Jan-18 14:00N 40°47' E 024°42'0 0.3
2018-Jan-18 13:30N 40°47' E 024°42'4 8.7
2018-Jan-18 13:00N 40°51' E 024°41'  
2018-Jan-12 14:25N 40°47' E 024°42'0 0.0
2018-Jan-12 14:00N 40°47' E 024°42'4 8.3
2018-Jan-12 13:29N 40°51' E 024°41'1 2.2
2018-Jan-12 13:00N 40°51' E 024°42'3 5.5
2018-Jan-12 12:30N 40°49' E 024°42'2 3.9
2018-Jan-12 12:00N 40°47' E 024°42'0 0.0
2018-Jan-12 11:05N 40°47' E 024°42'0 0.1
2018-Jan-12 11:00N 40°47' E 024°42'4 7.9
2018-Jan-12 10:30N 40°51' E 024°41'1 2.3
2018-Jan-12 10:01N 40°51' E 024°42'1 2.2
2018-Jan-12 09:31N 40°51' E 024°41'4 8.5
2018-Jan-12 09:00N 40°47' E 024°42'0 0.0
2018-Jan-12 08:30N 40°47' E 024°42'0 0.0
2018-Jan-11 14:28N 40°47' E 024°43'0 0.5
2018-Jan-11 14:00N 40°47' E 024°42'4 8.3
2018-Jan-11 13:30N 40°51' E 024°41'1 2.1
2018-Jan-11 13:00N 40°51' E 024°42'3 5.5
2018-Jan-11 12:30N 40°49' E 024°42'2 3.9
2018-Jan-11 12:00N 40°47' E 024°42'0 0.0
2018-Jan-11 11:29N 40°47' E 024°42'0 0.0
2018-Jan-11 11:00N 40°47' E 024°42'4 7.7
2018-Jan-11 10:30N 40°51' E 024°41'1 2.5
2018-Jan-11 10:00N 40°51' E 024°42'0 0.0
2018-Jan-11 08:20N 40°51' E 024°42'1 3.4
2018-Jan-11 08:00N 40°51' E 024°41'4 7.8
2018-Jan-11 07:30N 40°47' E 024°42'0 0.0
2018-Jan-11 07:00N 40°47' E 024°42'4 7.9
2018-Jan-11 06:30N 40°51' E 024°41'1 2.4
2018-Jan-11 06:00N 40°51' E 024°42'1 2.2
2018-Jan-11 05:30N 40°51' E 024°41'4 8.0
2018-Jan-11 05:00N 40°47' E 024°42'0 0.1
2018-Jan-11 04:30N 40°47' E 024°42'0 0.0
2018-Jan-10 10:23N 40°47' E 024°42'0 0.0
2018-Jan-10 10:00N 40°47' E 024°42'0 0.0
2018-Jan-10 09:30N 40°47' E 024°42'0 0.0
2018-Jan-10 09:00N 40°47' E 024°42'0 0.0
2018-Jan-10 08:31N 40°47' E 024°42'0 0.0
2018-Jan-10 08:00N 40°47' E 024°42'2 3.5
2018-Jan-10 07:30N 40°48' E 024°42'3 6.0
2018-Jan-10 07:00N 40°51' E 024°42'0 0.0
2018-Jan-10 06:30N 40°51' E 024°42'3 5.4
2018-Jan-10 06:00N 40°49' E 024°41'2 4.1
2018-Jan-10 05:30N 40°47' E 024°42'4 8.4
2018-Jan-10 05:00N 40°51' E 024°41'1 2.2
2018-Jan-10 04:30N 40°51' E 024°42'1 2.4
2018-Jan-10 04:00N 40°50' E 024°41'4 7.6
2018-Jan-10 03:30N 40°47' E 024°42'  

Dump ship's entire track history